sensor_id;sensor_type;location;lat;lon;timestamp;P1;durP1;ratioP1;P2;durP2;ratioP2
13801;SDS011;6972;51.518;6.918;2023-09-07T00:02:24;7.68;;;5.03;;
13801;SDS011;6972;51.518;6.918;2023-09-07T00:04:50;10.25;;;5.47;;
13801;SDS011;6972;51.518;6.918;2023-09-07T00:07:16;11.00;;;5.40;;
13801;SDS011;6972;51.518;6.918;2023-09-07T00:09:42;7.65;;;5.28;;
13801;SDS011;6972;51.518;6.918;2023-09-07T00:12:09;8.68;;;5.53;;
13801;SDS011;6972;51.518;6.918;2023-09-07T00:14:35;12.63;;;5.63;;
13801;SDS011;6972;51.518;6.918;2023-09-07T00:17:01;9.25;;;4.97;;
13801;SDS011;6972;51.518;6.918;2023-09-07T00:19:27;6.53;;;4.72;;
13801;SDS011;6972;51.518;6.918;2023-09-07T00:21:56;8.73;;;5.20;;
13801;SDS011;6972;51.518;6.918;2023-09-07T00:24:23;10.73;;;5.55;;
13801;SDS011;6972;51.518;6.918;2023-09-07T00:26:49;9.35;;;5.18;;
13801;SDS011;6972;51.518;6.918;2023-09-07T00:29:16;13.88;;;5.35;;
13801;SDS011;6972;51.518;6.918;2023-09-07T00:31:42;9.82;;;5.10;;
13801;SDS011;6972;51.518;6.918;2023-09-07T00:34:08;8.32;;;4.93;;
13801;SDS011;6972;51.518;6.918;2023-09-07T00:36:34;7.72;;;4.75;;
13801;SDS011;6972;51.518;6.918;2023-09-07T00:39:01;9.18;;;4.38;;
13801;SDS011;6972;51.518;6.918;2023-09-07T00:41:27;7.88;;;5.03;;
13801;SDS011;6972;51.518;6.918;2023-09-07T00:43:53;11.18;;;4.90;;
13801;SDS011;6972;51.518;6.918;2023-09-07T00:46:19;11.63;;;4.82;;
13801;SDS011;6972;51.518;6.918;2023-09-07T00:48:46;10.20;;;5.25;;
13801;SDS011;6972;51.518;6.918;2023-09-07T00:51:13;6.82;;;4.95;;
13801;SDS011;6972;51.518;6.918;2023-09-07T00:53:39;13.10;;;4.63;;
13801;SDS011;6972;51.518;6.918;2023-09-07T00:56:06;11.80;;;4.72;;
13801;SDS011;6972;51.518;6.918;2023-09-07T00:58:32;7.85;;;4.63;;
13801;SDS011;6972;51.518;6.918;2023-09-07T01:00:58;7.57;;;4.88;;
13801;SDS011;6972;51.518;6.918;2023-09-07T01:03:25;7.45;;;4.80;;
13801;SDS011;6972;51.518;6.918;2023-09-07T01:08:26;11.48;;;4.20;;
13801;SDS011;6972;51.518;6.918;2023-09-07T01:10:54;8.88;;;4.60;;
13801;SDS011;6972;51.518;6.918;2023-09-07T01:13:20;9.73;;;4.47;;
13801;SDS011;6972;51.518;6.918;2023-09-07T01:15:46;7.05;;;4.38;;
13801;SDS011;6972;51.518;6.918;2023-09-07T01:18:13;6.75;;;4.47;;
13801;SDS011;6972;51.518;6.918;2023-09-07T01:20:40;11.20;;;4.50;;
13801;SDS011;6972;51.518;6.918;2023-09-07T01:23:07;8.70;;;4.70;;
13801;SDS011;6972;51.518;6.918;2023-09-07T01:25:33;9.07;;;4.68;;
13801;SDS011;6972;51.518;6.918;2023-09-07T01:28:00;10.10;;;4.43;;
13801;SDS011;6972;51.518;6.918;2023-09-07T01:30:29;7.60;;;4.32;;
13801;SDS011;6972;51.518;6.918;2023-09-07T01:32:55;8.98;;;4.32;;
13801;SDS011;6972;51.518;6.918;2023-09-07T01:35:21;10.35;;;4.57;;
13801;SDS011;6972;51.518;6.918;2023-09-07T01:37:48;6.70;;;3.90;;
13801;SDS011;6972;51.518;6.918;2023-09-07T01:40:14;9.18;;;4.97;;
13801;SDS011;6972;51.518;6.918;2023-09-07T01:42:40;7.07;;;4.28;;
13801;SDS011;6972;51.518;6.918;2023-09-07T01:45:06;7.03;;;4.68;;
13801;SDS011;6972;51.518;6.918;2023-09-07T01:47:32;9.27;;;5.03;;
13801;SDS011;6972;51.518;6.918;2023-09-07T01:49:58;8.25;;;4.85;;
13801;SDS011;6972;51.518;6.918;2023-09-07T01:52:24;5.75;;;4.55;;
13801;SDS011;6972;51.518;6.918;2023-09-07T01:54:50;7.20;;;5.05;;
13801;SDS011;6972;51.518;6.918;2023-09-07T01:57:16;6.40;;;4.32;;
13801;SDS011;6972;51.518;6.918;2023-09-07T01:59:42;5.38;;;4.38;;
13801;SDS011;6972;51.518;6.918;2023-09-07T02:02:08;6.10;;;4.72;;
13801;SDS011;6972;51.518;6.918;2023-09-07T02:04:35;7.70;;;4.40;;
13801;SDS011;6972;51.518;6.918;2023-09-07T02:07:01;7.07;;;4.38;;
13801;SDS011;6972;51.518;6.918;2023-09-07T02:09:27;6.47;;;4.43;;
13801;SDS011;6972;51.518;6.918;2023-09-07T02:11:54;8.02;;;4.63;;
13801;SDS011;6972;51.518;6.918;2023-09-07T02:14:20;6.75;;;4.25;;
13801;SDS011;6972;51.518;6.918;2023-09-07T02:16:46;11.82;;;4.47;;
13801;SDS011;6972;51.518;6.918;2023-09-07T02:19:12;8.52;;;4.80;;
13801;SDS011;6972;51.518;6.918;2023-09-07T02:21:39;7.85;;;4.70;;
13801;SDS011;6972;51.518;6.918;2023-09-07T02:24:05;8.95;;;4.35;;
13801;SDS011;6972;51.518;6.918;2023-09-07T02:26:31;8.40;;;4.63;;
13801;SDS011;6972;51.518;6.918;2023-09-07T02:28:57;7.45;;;4.47;;
13801;SDS011;6972;51.518;6.918;2023-09-07T02:31:23;9.85;;;4.60;;
13801;SDS011;6972;51.518;6.918;2023-09-07T02:33:49;8.52;;;4.38;;
13801;SDS011;6972;51.518;6.918;2023-09-07T02:36:15;5.68;;;4.18;;
13801;SDS011;6972;51.518;6.918;2023-09-07T02:38:41;6.05;;;4.55;;
13801;SDS011;6972;51.518;6.918;2023-09-07T02:41:07;8.90;;;4.10;;
13801;SDS011;6972;51.518;6.918;2023-09-07T02:43:33;10.65;;;4.82;;
13801;SDS011;6972;51.518;6.918;2023-09-07T02:45:59;5.32;;;4.07;;
13801;SDS011;6972;51.518;6.918;2023-09-07T02:48:25;6.55;;;4.55;;
13801;SDS011;6972;51.518;6.918;2023-09-07T02:50:51;11.38;;;4.65;;
13801;SDS011;6972;51.518;6.918;2023-09-07T02:53:18;5.63;;;4.15;;
13801;SDS011;6972;51.518;6.918;2023-09-07T02:55:44;8.27;;;4.70;;
13801;SDS011;6972;51.518;6.918;2023-09-07T02:58:11;7.18;;;4.50;;
13801;SDS011;6972;51.518;6.918;2023-09-07T03:00:46;7.22;;;4.50;;
13801;SDS011;6972;51.518;6.918;2023-09-07T03:03:12;6.60;;;4.38;;
13801;SDS011;6972;51.518;6.918;2023-09-07T03:05:39;8.32;;;4.50;;
13801;SDS011;6972;51.518;6.918;2023-09-07T03:08:05;6.00;;;4.22;;
13801;SDS011;6972;51.518;6.918;2023-09-07T03:10:32;6.25;;;4.22;;
13801;SDS011;6972;51.518;6.918;2023-09-07T03:12:58;8.45;;;4.05;;
13801;SDS011;6972;51.518;6.918;2023-09-07T03:15:24;6.97;;;4.20;;
13801;SDS011;6972;51.518;6.918;2023-09-07T03:17:51;8.07;;;4.40;;
13801;SDS011;6972;51.518;6.918;2023-09-07T03:20:17;6.57;;;4.20;;
13801;SDS011;6972;51.518;6.918;2023-09-07T03:22:44;8.35;;;4.43;;
13801;SDS011;6972;51.518;6.918;2023-09-07T03:25:11;6.43;;;3.75;;
13801;SDS011;6972;51.518;6.918;2023-09-07T03:27:37;5.25;;;3.72;;
13801;SDS011;6972;51.518;6.918;2023-09-07T03:30:03;6.68;;;4.32;;
13801;SDS011;6972;51.518;6.918;2023-09-07T03:32:30;8.45;;;4.50;;
13801;SDS011;6972;51.518;6.918;2023-09-07T03:35:02;7.70;;;4.38;;
13801;SDS011;6972;51.518;6.918;2023-09-07T03:37:29;8.60;;;4.43;;
13801;SDS011;6972;51.518;6.918;2023-09-07T03:39:55;6.45;;;4.10;;
13801;SDS011;6972;51.518;6.918;2023-09-07T03:42:22;10.73;;;4.40;;
13801;SDS011;6972;51.518;6.918;2023-09-07T03:44:48;7.18;;;4.97;;
13801;SDS011;6972;51.518;6.918;2023-09-07T03:47:14;7.80;;;5.10;;
13801;SDS011;6972;51.518;6.918;2023-09-07T03:49:40;8.85;;;5.28;;
13801;SDS011;6972;51.518;6.918;2023-09-07T03:52:07;7.50;;;5.25;;
13801;SDS011;6972;51.518;6.918;2023-09-07T03:54:33;6.20;;;5.20;;
13801;SDS011;6972;51.518;6.918;2023-09-07T03:56:59;9.93;;;5.80;;
13801;SDS011;6972;51.518;6.918;2023-09-07T03:59:26;9.32;;;5.70;;
13801;SDS011;6972;51.518;6.918;2023-09-07T04:01:52;11.80;;;6.43;;
13801;SDS011;6972;51.518;6.918;2023-09-07T04:04:19;13.50;;;6.13;;
13801;SDS011;6972;51.518;6.918;2023-09-07T04:06:48;11.88;;;5.55;;
13801;SDS011;6972;51.518;6.918;2023-09-07T04:09:14;12.60;;;6.10;;
13801;SDS011;6972;51.518;6.918;2023-09-07T04:11:44;8.43;;;6.07;;
13801;SDS011;6972;51.518;6.918;2023-09-07T04:14:10;7.97;;;6.18;;
13801;SDS011;6972;51.518;6.918;2023-09-07T04:16:36;11.93;;;6.53;;
13801;SDS011;6972;51.518;6.918;2023-09-07T04:19:03;11.98;;;6.28;;
13801;SDS011;6972;51.518;6.918;2023-09-07T04:21:29;9.00;;;5.90;;
13801;SDS011;6972;51.518;6.918;2023-09-07T04:23:55;15.00;;;5.78;;
13801;SDS011;6972;51.518;6.918;2023-09-07T04:26:21;13.70;;;6.10;;
13801;SDS011;6972;51.518;6.918;2023-09-07T04:28:47;11.20;;;5.97;;
13801;SDS011;6972;51.518;6.918;2023-09-07T04:31:13;10.02;;;5.88;;
13801;SDS011;6972;51.518;6.918;2023-09-07T04:33:39;9.93;;;6.22;;
13801;SDS011;6972;51.518;6.918;2023-09-07T04:36:12;8.75;;;6.30;;
13801;SDS011;6972;51.518;6.918;2023-09-07T04:38:38;13.93;;;6.32;;
13801;SDS011;6972;51.518;6.918;2023-09-07T04:41:11;12.55;;;6.75;;
13801;SDS011;6972;51.518;6.918;2023-09-07T04:43:38;12.88;;;6.97;;
13801;SDS011;6972;51.518;6.918;2023-09-07T04:46:11;13.63;;;7.20;;
13801;SDS011;6972;51.518;6.918;2023-09-07T04:48:37;16.02;;;7.32;;
13801;SDS011;6972;51.518;6.918;2023-09-07T04:51:05;12.32;;;6.13;;
13801;SDS011;6972;51.518;6.918;2023-09-07T04:53:32;13.13;;;6.55;;
13801;SDS011;6972;51.518;6.918;2023-09-07T04:56:00;14.73;;;6.20;;
13801;SDS011;6972;51.518;6.918;2023-09-07T04:58:26;9.77;;;6.72;;
13801;SDS011;6972;51.518;6.918;2023-09-07T05:00:52;15.82;;;6.63;;
13801;SDS011;6972;51.518;6.918;2023-09-07T05:03:18;13.02;;;5.78;;
13801;SDS011;6972;51.518;6.918;2023-09-07T05:05:44;13.43;;;6.38;;
13801;SDS011;6972;51.518;6.918;2023-09-07T05:08:11;13.05;;;6.50;;
13801;SDS011;6972;51.518;6.918;2023-09-07T05:10:37;8.88;;;5.97;;
13801;SDS011;6972;51.518;6.918;2023-09-07T05:13:03;7.93;;;5.60;;
13801;SDS011;6972;51.518;6.918;2023-09-07T05:15:29;11.93;;;5.95;;
13801;SDS011;6972;51.518;6.918;2023-09-07T05:17:56;11.20;;;6.05;;
13801;SDS011;6972;51.518;6.918;2023-09-07T05:20:22;15.85;;;6.07;;
13801;SDS011;6972;51.518;6.918;2023-09-07T05:22:48;12.82;;;5.43;;
13801;SDS011;6972;51.518;6.918;2023-09-07T05:25:14;13.63;;;6.72;;
13801;SDS011;6972;51.518;6.918;2023-09-07T05:27:45;12.63;;;5.85;;
13801;SDS011;6972;51.518;6.918;2023-09-07T05:30:11;14.10;;;6.13;;
13801;SDS011;6972;51.518;6.918;2023-09-07T05:32:37;9.10;;;5.63;;
13801;SDS011;6972;51.518;6.918;2023-09-07T05:35:04;12.95;;;6.10;;
13801;SDS011;6972;51.518;6.918;2023-09-07T05:37:30;7.85;;;5.38;;
13801;SDS011;6972;51.518;6.918;2023-09-07T05:39:56;11.27;;;5.88;;
13801;SDS011;6972;51.518;6.918;2023-09-07T05:42:22;11.60;;;5.70;;
13801;SDS011;6972;51.518;6.918;2023-09-07T05:44:50;12.30;;;5.95;;
13801;SDS011;6972;51.518;6.918;2023-09-07T05:47:16;14.60;;;6.55;;
13801;SDS011;6972;51.518;6.918;2023-09-07T05:49:43;14.02;;;6.35;;
13801;SDS011;6972;51.518;6.918;2023-09-07T05:52:09;9.95;;;6.20;;
13801;SDS011;6972;51.518;6.918;2023-09-07T05:54:35;14.57;;;7.47;;
13801;SDS011;6972;51.518;6.918;2023-09-07T05:57:01;11.73;;;7.38;;
13801;SDS011;6972;51.518;6.918;2023-09-07T05:59:27;12.85;;;6.78;;
13801;SDS011;6972;51.518;6.918;2023-09-07T06:01:53;11.25;;;7.05;;
13801;SDS011;6972;51.518;6.918;2023-09-07T06:04:19;16.90;;;7.22;;
13801;SDS011;6972;51.518;6.918;2023-09-07T06:06:45;9.63;;;6.55;;
13801;SDS011;6972;51.518;6.918;2023-09-07T06:09:11;12.95;;;6.35;;
13801;SDS011;6972;51.518;6.918;2023-09-07T06:11:37;11.65;;;6.60;;
13801;SDS011;6972;51.518;6.918;2023-09-07T06:14:03;12.82;;;6.20;;
13801;SDS011;6972;51.518;6.918;2023-09-07T06:16:29;11.32;;;6.30;;
13801;SDS011;6972;51.518;6.918;2023-09-07T06:18:55;10.95;;;5.88;;
13801;SDS011;6972;51.518;6.918;2023-09-07T06:21:21;9.52;;;5.68;;
13801;SDS011;6972;51.518;6.918;2023-09-07T06:23:47;13.60;;;5.90;;
13801;SDS011;6972;51.518;6.918;2023-09-07T06:26:15;13.55;;;6.07;;
13801;SDS011;6972;51.518;6.918;2023-09-07T06:28:44;10.93;;;5.55;;
13801;SDS011;6972;51.518;6.918;2023-09-07T06:31:10;11.25;;;5.63;;
13801;SDS011;6972;51.518;6.918;2023-09-07T06:33:36;10.93;;;4.88;;
13801;SDS011;6972;51.518;6.918;2023-09-07T06:36:02;11.23;;;5.50;;
13801;SDS011;6972;51.518;6.918;2023-09-07T06:38:29;13.43;;;5.15;;
13801;SDS011;6972;51.518;6.918;2023-09-07T06:40:55;8.85;;;4.75;;
13801;SDS011;6972;51.518;6.918;2023-09-07T06:43:21;9.95;;;5.00;;
13801;SDS011;6972;51.518;6.918;2023-09-07T06:45:48;7.93;;;5.32;;
13801;SDS011;6972;51.518;6.918;2023-09-07T06:48:14;14.07;;;6.15;;
13801;SDS011;6972;51.518;6.918;2023-09-07T06:50:40;9.40;;;5.22;;
13801;SDS011;6972;51.518;6.918;2023-09-07T06:53:06;14.50;;;6.72;;
13801;SDS011;6972;51.518;6.918;2023-09-07T06:55:32;14.40;;;6.63;;
13801;SDS011;6972;51.518;6.918;2023-09-07T06:57:58;15.18;;;6.60;;
13801;SDS011;6972;51.518;6.918;2023-09-07T07:00:26;13.05;;;6.60;;
13801;SDS011;6972;51.518;6.918;2023-09-07T07:02:52;17.27;;;6.78;;
13801;SDS011;6972;51.518;6.918;2023-09-07T07:05:18;13.55;;;6.07;;
13801;SDS011;6972;51.518;6.918;2023-09-07T07:07:45;13.70;;;6.80;;
13801;SDS011;6972;51.518;6.918;2023-09-07T07:10:12;13.60;;;6.85;;
13801;SDS011;6972;51.518;6.918;2023-09-07T07:12:38;18.48;;;7.53;;
13801;SDS011;6972;51.518;6.918;2023-09-07T07:15:05;18.20;;;6.90;;
13801;SDS011;6972;51.518;6.918;2023-09-07T07:17:32;18.40;;;7.45;;
13801;SDS011;6972;51.518;6.918;2023-09-07T07:19:58;16.25;;;7.13;;
13801;SDS011;6972;51.518;6.918;2023-09-07T07:22:24;15.80;;;7.28;;
13801;SDS011;6972;51.518;6.918;2023-09-07T07:24:50;12.93;;;6.85;;
13801;SDS011;6972;51.518;6.918;2023-09-07T07:27:16;12.15;;;6.72;;
13801;SDS011;6972;51.518;6.918;2023-09-07T07:29:42;12.45;;;6.10;;
13801;SDS011;6972;51.518;6.918;2023-09-07T07:32:09;12.90;;;5.60;;
13801;SDS011;6972;51.518;6.918;2023-09-07T07:34:35;16.48;;;5.50;;
13801;SDS011;6972;51.518;6.918;2023-09-07T07:37:02;13.77;;;5.38;;
13801;SDS011;6972;51.518;6.918;2023-09-07T07:39:28;10.75;;;5.47;;
13801;SDS011;6972;51.518;6.918;2023-09-07T07:41:55;9.93;;;5.25;;
13801;SDS011;6972;51.518;6.918;2023-09-07T07:44:21;8.70;;;4.57;;
13801;SDS011;6972;51.518;6.918;2023-09-07T07:46:47;9.40;;;4.70;;
13801;SDS011;6972;51.518;6.918;2023-09-07T07:49:13;14.75;;;5.18;;
13801;SDS011;6972;51.518;6.918;2023-09-07T07:51:39;9.50;;;4.50;;
13801;SDS011;6972;51.518;6.918;2023-09-07T07:54:05;9.07;;;4.85;;
13801;SDS011;6972;51.518;6.918;2023-09-07T07:56:31;7.72;;;4.43;;
13801;SDS011;6972;51.518;6.918;2023-09-07T07:58:57;9.75;;;4.40;;
13801;SDS011;6972;51.518;6.918;2023-09-07T08:01:23;6.68;;;3.83;;
13801;SDS011;6972;51.518;6.918;2023-09-07T08:03:51;8.75;;;4.03;;
13801;SDS011;6972;51.518;6.918;2023-09-07T08:06:18;10.30;;;4.30;;
13801;SDS011;6972;51.518;6.918;2023-09-07T08:08:44;8.95;;;4.03;;
13801;SDS011;6972;51.518;6.918;2023-09-07T08:11:10;7.70;;;4.18;;
13801;SDS011;6972;51.518;6.918;2023-09-07T08:13:36;6.75;;;4.15;;
13801;SDS011;6972;51.518;6.918;2023-09-07T08:16:03;8.52;;;4.30;;
13801;SDS011;6972;51.518;6.918;2023-09-07T08:18:29;8.13;;;3.70;;
13801;SDS011;6972;51.518;6.918;2023-09-07T08:20:57;11.10;;;4.55;;
13801;SDS011;6972;51.518;6.918;2023-09-07T08:23:23;10.30;;;4.60;;
13801;SDS011;6972;51.518;6.918;2023-09-07T08:25:52;6.28;;;4.45;;
13801;SDS011;6972;51.518;6.918;2023-09-07T08:28:19;13.02;;;5.13;;
13801;SDS011;6972;51.518;6.918;2023-09-07T08:30:48;5.47;;;4.13;;
13801;SDS011;6972;51.518;6.918;2023-09-07T08:33:14;5.72;;;3.92;;
13801;SDS011;6972;51.518;6.918;2023-09-07T08:35:40;4.95;;;3.42;;
13801;SDS011;6972;51.518;6.918;2023-09-07T08:38:09;7.80;;;3.92;;
13801;SDS011;6972;51.518;6.918;2023-09-07T08:40:35;9.57;;;3.47;;
13801;SDS011;6972;51.518;6.918;2023-09-07T08:43:05;5.53;;;3.65;;
13801;SDS011;6972;51.518;6.918;2023-09-07T08:45:36;6.97;;;3.65;;
13801;SDS011;6972;51.518;6.918;2023-09-07T08:48:05;9.57;;;3.72;;
13801;SDS011;6972;51.518;6.918;2023-09-07T08:50:31;7.75;;;3.92;;
13801;SDS011;6972;51.518;6.918;2023-09-07T08:52:57;9.18;;;3.72;;
13801;SDS011;6972;51.518;6.918;2023-09-07T08:55:25;7.30;;;3.50;;
13801;SDS011;6972;51.518;6.918;2023-09-07T08:57:51;5.65;;;3.55;;
13801;SDS011;6972;51.518;6.918;2023-09-07T09:00:17;8.50;;;3.67;;
13801;SDS011;6972;51.518;6.918;2023-09-07T09:02:46;5.72;;;3.80;;
13801;SDS011;6972;51.518;6.918;2023-09-07T09:05:12;6.57;;;3.30;;
13801;SDS011;6972;51.518;6.918;2023-09-07T09:07:43;10.40;;;4.00;;
13801;SDS011;6972;51.518;6.918;2023-09-07T09:10:09;11.55;;;3.53;;
13801;SDS011;6972;51.518;6.918;2023-09-07T09:12:35;8.05;;;3.60;;
13801;SDS011;6972;51.518;6.918;2023-09-07T09:15:10;6.13;;;3.42;;
13801;SDS011;6972;51.518;6.918;2023-09-07T09:17:36;14.18;;;3.90;;
13801;SDS011;6972;51.518;6.918;2023-09-07T09:20:02;6.90;;;3.35;;
13801;SDS011;6972;51.518;6.918;2023-09-07T09:22:33;9.32;;;3.90;;
13801;SDS011;6972;51.518;6.918;2023-09-07T09:25:02;4.72;;;3.55;;
13801;SDS011;6972;51.518;6.918;2023-09-07T09:27:29;6.43;;;3.75;;
13801;SDS011;6972;51.518;6.918;2023-09-07T09:29:56;8.20;;;3.25;;
13801;SDS011;6972;51.518;6.918;2023-09-07T09:32:23;7.35;;;3.45;;
13801;SDS011;6972;51.518;6.918;2023-09-07T09:34:49;8.73;;;3.78;;
13801;SDS011;6972;51.518;6.918;2023-09-07T09:37:16;8.23;;;3.60;;
13801;SDS011;6972;51.518;6.918;2023-09-07T09:39:44;4.70;;;3.22;;
13801;SDS011;6972;51.518;6.918;2023-09-07T09:42:15;7.93;;;3.78;;
13801;SDS011;6972;51.518;6.918;2023-09-07T09:44:42;6.20;;;3.40;;
13801;SDS011;6972;51.518;6.918;2023-09-07T09:47:09;11.15;;;3.90;;
13801;SDS011;6972;51.518;6.918;2023-09-07T09:49:36;8.60;;;3.70;;
13801;SDS011;6972;51.518;6.918;2023-09-07T09:52:03;5.03;;;3.55;;
13801;SDS011;6972;51.518;6.918;2023-09-07T09:54:31;14.95;;;3.90;;
13801;SDS011;6972;51.518;6.918;2023-09-07T09:56:59;4.75;;;3.20;;
13801;SDS011;6972;51.518;6.918;2023-09-07T09:59:25;3.97;;;3.38;;
13801;SDS011;6972;51.518;6.918;2023-09-07T10:01:51;10.05;;;3.20;;
13801;SDS011;6972;51.518;6.918;2023-09-07T10:04:18;6.90;;;3.20;;
13801;SDS011;6972;51.518;6.918;2023-09-07T10:06:54;3.95;;;2.97;;
13801;SDS011;6972;51.518;6.918;2023-09-07T10:09:21;6.32;;;3.20;;
13801;SDS011;6972;51.518;6.918;2023-09-07T10:11:51;4.95;;;3.13;;
13801;SDS011;6972;51.518;6.918;2023-09-07T10:14:18;4.40;;;3.00;;
13801;SDS011;6972;51.518;6.918;2023-09-07T10:16:45;7.28;;;3.00;;
13801;SDS011;6972;51.518;6.918;2023-09-07T10:19:14;6.43;;;3.10;;
13801;SDS011;6972;51.518;6.918;2023-09-07T10:21:41;4.30;;;2.90;;
13801;SDS011;6972;51.518;6.918;2023-09-07T10:24:07;3.53;;;2.90;;
13801;SDS011;6972;51.518;6.918;2023-09-07T10:26:33;4.40;;;3.15;;
13801;SDS011;6972;51.518;6.918;2023-09-07T10:29:00;4.38;;;2.80;;
13801;SDS011;6972;51.518;6.918;2023-09-07T10:31:28;3.30;;;2.72;;
13801;SDS011;6972;51.518;6.918;2023-09-07T10:33:55;5.78;;;2.97;;
13801;SDS011;6972;51.518;6.918;2023-09-07T10:36:22;7.65;;;2.95;;
13801;SDS011;6972;51.518;6.918;2023-09-07T10:38:49;8.77;;;2.72;;
13801;SDS011;6972;51.518;6.918;2023-09-07T10:41:18;3.78;;;2.70;;
13801;SDS011;6972;51.518;6.918;2023-09-07T10:43:47;4.38;;;2.92;;
13801;SDS011;6972;51.518;6.918;2023-09-07T10:46:14;5.22;;;2.85;;
13801;SDS011;6972;51.518;6.918;2023-09-07T10:48:40;8.57;;;3.33;;
13801;SDS011;6972;51.518;6.918;2023-09-07T10:51:07;5.45;;;3.08;;
13801;SDS011;6972;51.518;6.918;2023-09-07T10:53:33;8.10;;;3.10;;
13801;SDS011;6972;51.518;6.918;2023-09-07T10:56:02;6.15;;;2.92;;
13801;SDS011;6972;51.518;6.918;2023-09-07T10:58:30;5.28;;;2.80;;
13801;SDS011;6972;51.518;6.918;2023-09-07T11:00:56;6.25;;;2.90;;
13801;SDS011;6972;51.518;6.918;2023-09-07T11:03:23;8.32;;;3.00;;
13801;SDS011;6972;51.518;6.918;2023-09-07T11:05:51;3.75;;;2.65;;
13801;SDS011;6972;51.518;6.918;2023-09-07T11:08:17;5.20;;;2.83;;
13801;SDS011;6972;51.518;6.918;2023-09-07T11:10:43;4.53;;;3.08;;
13801;SDS011;6972;51.518;6.918;2023-09-07T11:13:10;3.55;;;2.60;;
13801;SDS011;6972;51.518;6.918;2023-09-07T11:15:36;6.57;;;2.85;;
13801;SDS011;6972;51.518;6.918;2023-09-07T11:18:07;3.83;;;2.92;;
13801;SDS011;6972;51.518;6.918;2023-09-07T11:20:34;10.10;;;2.92;;
13801;SDS011;6972;51.518;6.918;2023-09-07T11:23:03;3.97;;;3.00;;
13801;SDS011;6972;51.518;6.918;2023-09-07T11:25:37;4.38;;;3.40;;
13801;SDS011;6972;51.518;6.918;2023-09-07T11:28:04;4.95;;;3.03;;
13801;SDS011;6972;51.518;6.918;2023-09-07T11:30:30;6.82;;;3.17;;
13801;SDS011;6972;51.518;6.918;2023-09-07T11:33:00;9.90;;;3.03;;
13801;SDS011;6972;51.518;6.918;2023-09-07T11:35:26;2.88;;;2.53;;
13801;SDS011;6972;51.518;6.918;2023-09-07T11:37:53;5.75;;;2.88;;
13801;SDS011;6972;51.518;6.918;2023-09-07T11:40:19;5.18;;;2.90;;
13801;SDS011;6972;51.518;6.918;2023-09-07T11:42:45;4.30;;;2.78;;
13801;SDS011;6972;51.518;6.918;2023-09-07T11:45:11;4.32;;;2.60;;
13801;SDS011;6972;51.518;6.918;2023-09-07T11:47:38;3.63;;;2.85;;
13801;SDS011;6972;51.518;6.918;2023-09-07T11:50:05;4.20;;;2.75;;
13801;SDS011;6972;51.518;6.918;2023-09-07T11:52:35;4.63;;;2.95;;
13801;SDS011;6972;51.518;6.918;2023-09-07T11:55:01;3.40;;;2.50;;
13801;SDS011;6972;51.518;6.918;2023-09-07T11:57:28;4.57;;;2.90;;
13801;SDS011;6972;51.518;6.918;2023-09-07T11:59:54;4.05;;;2.75;;
13801;SDS011;6972;51.518;6.918;2023-09-07T12:02:20;4.63;;;2.90;;
13801;SDS011;6972;51.518;6.918;2023-09-07T12:04:47;5.60;;;2.83;;
13801;SDS011;6972;51.518;6.918;2023-09-07T12:07:13;3.35;;;2.65;;
13801;SDS011;6972;51.518;6.918;2023-09-07T12:09:39;5.78;;;3.10;;
13801;SDS011;6972;51.518;6.918;2023-09-07T12:12:06;4.30;;;3.08;;
13801;SDS011;6972;51.518;6.918;2023-09-07T12:14:32;7.70;;;2.90;;
13801;SDS011;6972;51.518;6.918;2023-09-07T12:16:58;4.18;;;2.58;;
13801;SDS011;6972;51.518;6.918;2023-09-07T12:19:24;3.45;;;2.70;;
13801;SDS011;6972;51.518;6.918;2023-09-07T12:21:51;6.28;;;2.70;;
13801;SDS011;6972;51.518;6.918;2023-09-07T12:24:17;4.90;;;2.70;;
13801;SDS011;6972;51.518;6.918;2023-09-07T12:26:43;4.25;;;2.63;;
13801;SDS011;6972;51.518;6.918;2023-09-07T12:29:09;3.30;;;2.78;;
13801;SDS011;6972;51.518;6.918;2023-09-07T12:31:35;7.57;;;3.20;;
13801;SDS011;6972;51.518;6.918;2023-09-07T12:34:01;3.85;;;3.17;;
13801;SDS011;6972;51.518;6.918;2023-09-07T12:36:27;3.45;;;3.15;;
13801;SDS011;6972;51.518;6.918;2023-09-07T12:38:54;3.33;;;3.03;;
13801;SDS011;6972;51.518;6.918;2023-09-07T12:41:26;3.58;;;3.00;;
13801;SDS011;6972;51.518;6.918;2023-09-07T12:43:52;4.43;;;2.97;;
13801;SDS011;6972;51.518;6.918;2023-09-07T12:46:18;4.15;;;2.92;;
13801;SDS011;6972;51.518;6.918;2023-09-07T12:48:44;5.53;;;2.83;;
13801;SDS011;6972;51.518;6.918;2023-09-07T12:51:10;5.47;;;2.90;;
13801;SDS011;6972;51.518;6.918;2023-09-07T12:53:36;3.85;;;2.70;;
13801;SDS011;6972;51.518;6.918;2023-09-07T12:56:02;6.07;;;2.83;;
13801;SDS011;6972;51.518;6.918;2023-09-07T12:58:28;4.47;;;2.63;;
13801;SDS011;6972;51.518;6.918;2023-09-07T13:00:54;6.00;;;3.10;;
13801;SDS011;6972;51.518;6.918;2023-09-07T13:03:20;4.63;;;2.50;;
13801;SDS011;6972;51.518;6.918;2023-09-07T13:05:47;3.97;;;2.67;;
13801;SDS011;6972;51.518;6.918;2023-09-07T13:08:14;7.50;;;2.83;;
13801;SDS011;6972;51.518;6.918;2023-09-07T13:10:40;3.72;;;3.13;;
13801;SDS011;6972;51.518;6.918;2023-09-07T13:13:06;3.70;;;2.88;;
13801;SDS011;6972;51.518;6.918;2023-09-07T13:15:33;6.18;;;2.72;;
13801;SDS011;6972;51.518;6.918;2023-09-07T13:17:59;3.55;;;2.75;;
13801;SDS011;6972;51.518;6.918;2023-09-07T13:20:25;5.22;;;2.67;;
13801;SDS011;6972;51.518;6.918;2023-09-07T13:22:51;5.07;;;2.85;;
13801;SDS011;6972;51.518;6.918;2023-09-07T13:25:17;4.43;;;2.72;;
13801;SDS011;6972;51.518;6.918;2023-09-07T13:27:43;5.97;;;2.80;;
13801;SDS011;6972;51.518;6.918;2023-09-07T13:30:09;3.17;;;2.80;;
13801;SDS011;6972;51.518;6.918;2023-09-07T13:32:38;3.25;;;2.65;;
13801;SDS011;6972;51.518;6.918;2023-09-07T13:35:04;7.45;;;3.05;;
13801;SDS011;6972;51.518;6.918;2023-09-07T13:37:31;3.25;;;2.88;;
13801;SDS011;6972;51.518;6.918;2023-09-07T13:39:57;3.67;;;2.75;;
13801;SDS011;6972;51.518;6.918;2023-09-07T13:42:24;3.60;;;2.83;;
13801;SDS011;6972;51.518;6.918;2023-09-07T13:44:52;5.22;;;2.70;;
13801;SDS011;6972;51.518;6.918;2023-09-07T13:47:18;12.32;;;3.40;;
13801;SDS011;6972;51.518;6.918;2023-09-07T13:49:44;5.82;;;3.15;;
13801;SDS011;6972;51.518;6.918;2023-09-07T13:52:10;7.13;;;3.28;;
13801;SDS011;6972;51.518;6.918;2023-09-07T13:54:38;4.47;;;2.95;;
13801;SDS011;6972;51.518;6.918;2023-09-07T13:57:04;4.45;;;2.95;;
13801;SDS011;6972;51.518;6.918;2023-09-07T13:59:30;4.28;;;2.97;;
13801;SDS011;6972;51.518;6.918;2023-09-07T14:01:59;4.00;;;3.35;;
13801;SDS011;6972;51.518;6.918;2023-09-07T14:04:25;4.75;;;3.33;;
13801;SDS011;6972;51.518;6.918;2023-09-07T14:06:52;5.93;;;3.15;;
13801;SDS011;6972;51.518;6.918;2023-09-07T14:09:18;8.32;;;3.25;;
13801;SDS011;6972;51.518;6.918;2023-09-07T14:11:44;9.98;;;3.03;;
13801;SDS011;6972;51.518;6.918;2023-09-07T14:14:10;4.78;;;3.20;;
13801;SDS011;6972;51.518;6.918;2023-09-07T14:16:36;4.95;;;2.80;;
13801;SDS011;6972;51.518;6.918;2023-09-07T14:19:02;5.32;;;3.60;;
13801;SDS011;6972;51.518;6.918;2023-09-07T14:21:28;7.80;;;3.25;;
13801;SDS011;6972;51.518;6.918;2023-09-07T14:23:54;5.50;;;3.50;;
13801;SDS011;6972;51.518;6.918;2023-09-07T14:26:20;4.95;;;3.15;;
13801;SDS011;6972;51.518;6.918;2023-09-07T14:28:46;5.70;;;3.58;;
13801;SDS011;6972;51.518;6.918;2023-09-07T14:31:12;4.50;;;3.60;;
13801;SDS011;6972;51.518;6.918;2023-09-07T14:33:38;5.88;;;3.35;;
13801;SDS011;6972;51.518;6.918;2023-09-07T14:36:07;4.68;;;3.60;;
13801;SDS011;6972;51.518;6.918;2023-09-07T14:38:34;6.85;;;3.30;;
13801;SDS011;6972;51.518;6.918;2023-09-07T14:41:05;3.92;;;3.25;;
13801;SDS011;6972;51.518;6.918;2023-09-07T14:43:31;5.15;;;3.22;;
13801;SDS011;6972;51.518;6.918;2023-09-07T14:45:57;5.28;;;3.30;;
13801;SDS011;6972;51.518;6.918;2023-09-07T14:48:26;6.53;;;3.53;;
13801;SDS011;6972;51.518;6.918;2023-09-07T14:50:52;6.10;;;3.53;;
13801;SDS011;6972;51.518;6.918;2023-09-07T14:53:18;5.00;;;3.28;;
13801;SDS011;6972;51.518;6.918;2023-09-07T14:55:44;5.18;;;3.40;;
13801;SDS011;6972;51.518;6.918;2023-09-07T14:58:10;8.55;;;3.38;;